Time,TemperatureF,DewpointF,PressureIn,WindDirection,WindDirectionDegrees,WindSpeedMPH,WindSpeedGustMPH,Humidity,HourlyPrecipIn,Conditions,Clouds,dailyrainin,SoftwareType,DateUTC
2013-03-11 00:00:00,28.7,22.1,29.83,NNE,33,3.0,11.0,76,0.00,,OVC019,0.00,VWS V14.01,2013-03-11 05:00:00,
2013-03-11 00:05:00,28.7,22.1,29.83,NE,40,3.0,11.0,76,0.00,,OVC019,0.00,VWS V14.01,2013-03-11 05:05:00,
2013-03-11 00:10:00,28.7,22.1,29.83,NE,51,4.0,13.0,76,0.00,,OVC019,0.00,VWS V14.01,2013-03-11 05:10:00,
2013-03-11 00:15:00,28.5,21.9,29.82,NNE,31,6.0,11.0,76,0.00,,OVC019,0.00,VWS V14.01,2013-03-11 05:15:00,
2013-03-11 00:20:00,28.5,21.9,29.82,NE,42,3.0,14.0,76,0.00,,OVC019,0.00,VWS V14.01,2013-03-11 05:20:00,
2013-03-11 00:25:00,28.5,21.9,29.82,NE,40,5.0,16.0,76,0.00,,OVC019,0.00,VWS V14.01,2013-03-11 05:25:00,
2013-03-11 00:30:00,28.5,21.9,29.82,North,360,4.0,10.0,76,0.00,,OVC019,0.00,VWS V14.01,2013-03-11 05:30:00,
2013-03-11 00:35:00,28.4,21.8,29.82,NNE,31,6.0,14.0,76,0.00,,OVC019,0.00,VWS V14.01,2013-03-11 05:35:00,
2013-03-11 00:40:00,28.4,21.8,29.82,North,9,5.0,15.0,76,0.00,,OVC019,0.00,VWS V14.01,2013-03-11 05:40:00,
2013-03-11 00:45:00,28.4,21.8,29.82,North,11,2.0,13.0,76,0.00,,OVC019,0.00,VWS V14.01,2013-03-11 05:45:00,
2013-03-11 00:50:00,28.2,21.6,29.82,North,9,7.0,12.0,76,0.00,,OVC019,0.00,VWS V14.01,2013-03-11 05:50:00,
2013-03-11 00:55:00,28.2,21.6,29.82,North,5,8.0,14.0,76,0.00,,OVC019,0.00,VWS V14.01,2013-03-11 05:55:00,
2013-03-11 01:00:00,28.1,21.5,29.82,NNE,15,5.0,13.0,76,0.00,,OVC019,0.00,VWS V14.01,2013-03-11 06:00:00,
2013-03-11 01:05:00,28.1,21.5,29.82,NNE,24,6.0,13.0,76,0.00,,OVC019,0.00,VWS V14.01,2013-03-11 06:05:00,
2013-03-11 01:10:00,28.1,21.5,29.82,North,355,4.0,12.0,76,0.00,,OVC019,0.00,VWS V14.01,2013-03-11 06:10:00,
2013-03-11 01:15:00,27.9,21.3,29.82,NNE,15,8.0,9.0,76,0.00,,OVC019,0.00,VWS V14.01,2013-03-11 06:15:00,
2013-03-11 01:20:00,27.9,21.3,29.82,North,11,4.0,11.0,76,0.00,,OVC019,0.00,VWS V14.01,2013-03-11 06:20:00,
2013-03-11 01:25:00,27.9,21.3,29.82,North,355,7.0,12.0,76,0.00,,OVC019,0.00,VWS V14.01,2013-03-11 06:25:00,
2013-03-11 01:30:00,27.9,21.3,29.81,NNE,16,6.0,15.0,76,0.00,,OVC019,0.00,VWS V14.01,2013-03-11 06:30:00,
2013-03-11 01:35:00,27.9,21.3,29.81,North,5,11.0,12.0,76,0.00,,OVC019,0.00,VWS V14.01,2013-03-11 06:35:00,
2013-03-11 01:40:00,27.8,21.2,29.81,NW,326,6.0,12.0,76,0.00,,OVC019,0.00,VWS V14.01,2013-03-11 06:40:00,
2013-03-11 01:45:00,27.8,21.2,29.81,North,351,7.0,10.0,76,0.00,,OVC019,0.00,VWS V14.01,2013-03-11 06:45:00,
2013-03-11 01:50:00,27.8,21.2,29.81,NNE,15,7.0,15.0,76,0.00,,OVC019,0.00,VWS V14.01,2013-03-11 06:50:00,
2013-03-11 01:55:00,27.8,21.2,29.81,North,5,5.0,15.0,76,0.00,,OVC019,0.00,VWS V14.01,2013-03-11 06:55:00,
2013-03-11 02:00:00,27.8,21.2,29.80,NNE,32,3.0,14.0,76,0.00,,OVC019,0.00,VWS V14.01,2013-03-11 07:00:00,
2013-03-11 02:05:00,27.8,21.2,29.80,NNE,30,2.0,7.0,76,0.00,,OVC019,0.00,VWS V14.01,2013-03-11 07:05:00,
2013-03-11 02:10:00,27.6,21.0,29.80,NNE,19,2.0,16.0,76,0.00,,OVC019,0.00,VWS V14.01,2013-03-11 07:10:00,
2013-03-11 02:15:00,27.6,21.0,29.80,NNE,24,3.0,10.0,76,0.00,,OVC019,0.00,VWS V14.01,2013-03-11 07:15:00,
2013-03-11 02:20:00,27.6,21.0,29.80,North,5,6.0,11.0,76,0.00,,OVC019,0.00,VWS V14.01,2013-03-11 07:20:00,
2013-03-11 02:25:00,27.6,21.0,29.80,NNE,25,5.0,9.0,76,0.00,,OVC019,0.00,VWS V14.01,2013-03-11 07:25:00,
2013-03-11 02:30:00,27.6,21.0,29.80,NNE,16,13.0,15.0,76,0.00,,OVC019,0.00,VWS V14.01,2013-03-11 07:30:00,
2013-03-11 02:35:00,27.6,21.0,29.80,NNE,15,3.0,14.0,76,0.00,,OVC019,0.00,VWS V14.01,2013-03-11 07:35:00,
2013-03-11 02:40:00,27.5,20.9,29.80,North,0,4.0,9.0,76,0.00,,---,0.00,VWS V14.01,2013-03-11 07:40:00,
2013-03-11 02:45:00,27.5,20.9,29.80,North,11,9.0,15.0,76,0.00,,OVC019,0.00,VWS V14.01,2013-03-11 07:45:00,
2013-03-11 02:50:00,27.5,20.9,29.80,NNE,22,4.0,10.0,76,0.00,,---,0.00,VWS V14.01,2013-03-11 07:50:00,
2013-03-11 02:55:00,27.5,21.2,29.80,NNE,25,3.0,12.0,77,0.00,,OVC019,0.00,VWS V14.01,2013-03-11 07:55:00,
2013-03-11 03:00:00,27.3,20.8,29.79,North,0,5.0,15.0,76,0.00,,---,0.00,VWS V14.01,2013-03-11 08:00:00,
2013-03-11 03:05:00,27.3,21.1,29.79,North,0,6.0,14.0,77,0.00,,---,0.00,VWS V14.01,2013-03-11 08:05:00,
2013-03-11 03:10:00,27.3,21.1,29.79,North,0,5.0,13.0,77,0.00,,---,0.00,VWS V14.01,2013-03-11 08:10:00,
2013-03-11 03:15:00,27.3,21.1,29.79,North,0,5.0,13.0,77,0.00,,---,0.00,VWS V14.01,2013-03-11 08:15:00,
2013-03-11 03:20:00,27.2,21.0,29.79,NNE,22,5.0,10.0,77,0.00,,---,0.00,VWS V14.01,2013-03-11 08:20:00,
2013-03-11 03:25:00,27.2,21.0,29.79,NNE,14,9.0,12.0,77,0.00,,OVC017,0.00,VWS V14.01,2013-03-11 08:25:00,
2013-03-11 03:30:00,27.2,21.0,29.78,NNW,338,4.0,9.0,77,0.00,,OVC017,0.00,VWS V14.01,2013-03-11 08:30:00,
2013-03-11 03:35:00,27.2,21.0,29.78,NNE,22,6.0,13.0,77,0.00,,---,0.00,VWS V14.01,2013-03-11 08:35:00,
2013-03-11 03:40:00,27.2,21.0,29.78,NNE,22,5.0,11.0,77,0.00,,---,0.00,VWS V14.01,2013-03-11 08:40:00,
2013-03-11 03:42:00,27.5,20.9,29.80,North,360,5.0,9.0,76,0.00,,OVC019,0.00,VWS V14.01,2013-03-11 08:42:00,
2013-03-11 03:45:00,27.0,20.5,29.78,North,0,5.0,14.0,76,0.00,,---,0.00,VWS V14.01,2013-03-11 08:45:00,
2013-03-11 03:50:00,27.0,20.5,29.78,North,5,4.0,13.0,76,0.00,,OVC017,0.00,VWS V14.01,2013-03-11 08:50:00,
2013-03-11 03:52:00,27.5,20.9,29.80,North,355,3.0,10.0,76,0.00,,OVC019,0.00,VWS V14.01,2013-03-11 08:52:00,
2013-03-11 03:55:00,27.0,20.5,29.78,North,5,5.0,11.0,76,0.00,,OVC017,0.00,VWS V14.01,2013-03-11 08:55:00,
2013-03-11 04:00:00,26.9,20.4,29.77,NNE,22,7.0,17.0,76,0.00,,---,0.00,VWS V14.01,2013-03-11 09:00:00,
2013-03-11 04:02:00,27.3,20.8,29.79,North,355,10.0,14.0,76,0.00,,OVC017,0.00,VWS V14.01,2013-03-11 09:02:00,
2013-03-11 04:05:00,26.9,20.4,29.77,North,0,5.0,11.0,76,0.00,,---,0.00,VWS V14.01,2013-03-11 09:05:00,
2013-03-11 04:07:00,27.3,21.1,29.79,North,5,5.0,14.0,77,0.00,,OVC017,0.00,VWS V14.01,2013-03-11 09:07:00,
2013-03-11 04:10:00,26.7,20.2,29.77,North,0,6.0,16.0,76,0.00,,---,0.00,VWS V14.01,2013-03-11 09:10:00,
2013-03-11 04:15:00,26.7,20.2,29.77,North,0,7.0,15.0,76,0.00,,---,0.00,VWS V14.01,2013-03-11 09:15:00,
2013-03-11 04:17:00,27.3,21.1,29.79,North,5,10.0,13.0,77,0.00,,OVC017,0.00,VWS V14.01,2013-03-11 09:17:00,
2013-03-11 04:20:00,26.6,20.1,29.77,North,0,5.0,15.0,76,0.00,,---,0.00,VWS V14.01,2013-03-11 09:20:00,
2013-03-11 04:22:00,27.2,21.0,29.79,NNE,24,2.0,10.0,77,0.00,,OVC017,0.00,VWS V14.01,2013-03-11 09:22:00,
2013-03-11 04:25:00,26.6,20.4,29.77,NNE,22,6.0,11.0,77,0.00,,---,0.00,VWS V14.01,2013-03-11 09:25:00,
2013-03-11 04:30:00,26.6,20.4,29.76,North,0,5.0,17.0,77,0.00,,---,0.00,VWS V14.01,2013-03-11 09:30:00,
2013-03-11 04:35:00,26.4,20.2,29.76,North,0,3.0,10.0,77,0.00,,---,0.00,VWS V14.01,2013-03-11 09:35:00,
2013-03-11 04:37:00,27.2,21.0,29.78,NNE,23,7.0,10.0,77,0.00,,OVC017,0.00,VWS V14.01,2013-03-11 09:37:00,
2013-03-11 04:40:00,26.4,20.2,29.76,NE,45,2.0,5.0,77,0.00,,---,0.00,VWS V14.01,2013-03-11 09:40:00,
2013-03-11 04:45:00,26.4,20.2,29.76,NNE,22,4.0,10.0,77,0.00,,---,0.00,VWS V14.01,2013-03-11 09:45:00,
2013-03-11 04:47:00,27.0,20.5,29.78,NNE,22,3.0,14.0,76,0.00,,OVC017,0.00,VWS V14.01,2013-03-11 09:47:00,
2013-03-11 04:50:00,26.4,20.2,29.76,NNE,22,4.0,9.0,77,0.00,,---,0.00,VWS V14.01,2013-03-11 09:50:00,
2013-03-11 04:55:00,26.4,20.2,29.76,North,0,3.0,8.0,77,0.00,,---,0.00,VWS V14.01,2013-03-11 09:55:00,
2013-03-11 05:00:00,26.4,20.2,29.76,NNE,22,4.0,9.0,77,0.00,,---,0.00,VWS V14.01,2013-03-11 10:00:00,
2013-03-11 05:02:00,26.9,20.4,29.77,NNE,28,3.0,17.0,76,0.00,,OVC019,0.00,VWS V14.01,2013-03-11 10:02:00,
2013-03-11 05:05:00,26.4,20.2,29.76,North,0,3.0,14.0,77,0.00,,---,0.00,VWS V14.01,2013-03-11 10:05:00,
2013-03-11 05:07:00,26.9,20.4,29.77,NNE,15,2.0,11.0,76,0.00,,OVC019,0.00,VWS V14.01,2013-03-11 10:07:00,
2013-03-11 05:10:00,26.4,20.2,29.76,North,0,3.0,11.0,77,0.00,,---,0.00,VWS V14.01,2013-03-11 10:10:00,
2013-03-11 05:15:00,26.3,20.1,29.76,NE,45,4.0,12.0,77,0.00,,---,0.00,VWS V14.01,2013-03-11 10:15:00,
2013-03-11 05:17:00,26.7,20.2,29.77,NNE,17,10.0,15.0,76,0.00,,OVC019,0.00,VWS V14.01,2013-03-11 10:17:00,
2013-03-11 05:20:00,26.3,20.1,29.76,North,0,4.0,10.0,77,0.00,,---,0.00,VWS V14.01,2013-03-11 10:20:00,
2013-03-11 05:25:00,26.3,20.1,29.76,NNE,22,5.0,13.0,77,0.00,,---,0.00,VWS V14.01,2013-03-11 10:25:00,
2013-03-11 05:27:00,26.6,20.4,29.77,NNE,16,4.0,11.0,77,0.00,,OVC019,0.00,VWS V14.01,2013-03-11 10:27:00,
2013-03-11 05:30:00,26.3,20.4,29.76,North,0,4.0,9.0,78,0.00,,---,0.00,VWS V14.01,2013-03-11 10:30:00,
2013-03-11 05:35:00,26.3,20.1,29.76,NNE,22,6.0,13.0,77,0.00,,---,0.00,VWS V14.01,2013-03-11 10:35:00,
2013-03-11 05:37:00,26.4,20.2,29.76,North,5,3.0,10.0,77,0.00,,OVC019,0.00,VWS V14.01,2013-03-11 10:37:00,
2013-03-11 05:40:00,26.1,19.9,29.76,North,0,5.0,11.0,77,0.00,,---,0.00,VWS V14.01,2013-03-11 10:40:00,
2013-03-11 05:45:00,26.1,19.9,29.76,NNE,31,6.0,12.0,77,0.00,,OVC017,0.00,VWS V14.01,2013-03-11 10:45:00,
2013-03-11 05:47:00,26.4,20.2,29.76,North,350,6.0,10.0,77,0.00,,OVC019,0.00,VWS V14.01,2013-03-11 10:47:00,
2013-03-11 05:50:00,26.1,19.9,29.76,NNE,22,5.0,14.0,77,0.00,,---,0.00,VWS V14.01,2013-03-11 10:50:00,
2013-03-11 05:52:00,26.4,20.2,29.76,North,5,3.0,9.0,77,0.00,,OVC019,0.00,VWS V14.01,2013-03-11 10:52:00,
2013-03-11 05:55:00,26.1,19.9,29.76,North,0,4.0,10.0,77,0.00,,---,0.00,VWS V14.01,2013-03-11 10:55:00,
2013-03-11 06:00:00,26.1,19.9,29.76,North,0,5.0,10.0,77,0.00,,---,0.00,VWS V14.01,2013-03-11 11:00:00,
2013-03-11 06:02:00,26.4,20.2,29.76,NNE,15,7.0,9.0,77,0.00,,OVC017,0.00,VWS V14.01,2013-03-11 11:02:00,
2013-03-11 06:05:00,26.1,19.9,29.76,North,0,6.0,16.0,77,0.00,,---,0.00,VWS V14.01,2013-03-11 11:05:00,
2013-03-11 06:10:00,26.1,20.2,29.76,North,0,4.0,9.0,78,0.00,,---,0.00,VWS V14.01,2013-03-11 11:10:00,
2013-03-11 06:12:00,26.4,20.2,29.76,NNW,332,5.0,11.0,77,0.00,,OVC017,0.00,VWS V14.01,2013-03-11 11:12:00,
2013-03-11 06:15:00,26.1,19.9,29.76,NNE,22,3.0,12.0,77,0.00,,---,0.00,VWS V14.01,2013-03-11 11:15:00,
2013-03-11 06:20:00,26.0,19.8,29.76,North,0,4.0,12.0,77,0.00,,---,0.00,VWS V14.01,2013-03-11 11:20:00,
2013-03-11 06:22:00,26.3,20.1,29.76,NNE,16,6.0,10.0,77,0.00,,OVC017,0.00,VWS V14.01,2013-03-11 11:22:00,
2013-03-11 06:25:00,26.0,19.8,29.76,North,0,3.0,6.0,77,0.00,,---,0.00,VWS V14.01,2013-03-11 11:25:00,
2013-03-11 06:27:00,26.3,20.1,29.76,NNE,15,7.0,13.0,77,0.00,,OVC017,0.00,VWS V14.01,2013-03-11 11:27:00,
2013-03-11 06:30:00,26.0,19.8,29.76,North,0,4.0,13.0,77,0.00,,---,0.00,VWS V14.01,2013-03-11 11:30:00,
2013-03-11 06:35:00,26.0,19.8,29.76,North,0,4.0,11.0,77,0.00,,---,0.00,VWS V14.01,2013-03-11 11:35:00,
2013-03-11 06:37:00,26.3,20.1,29.76,NNE,27,3.0,13.0,77,0.00,,OVC017,0.00,VWS V14.01,2013-03-11 11:37:00,
2013-03-11 06:40:00,26.0,20.1,29.76,North,0,4.0,7.0,78,0.00,,---,0.00,VWS V14.01,2013-03-11 11:40:00,
2013-03-11 06:45:00,26.0,20.1,29.76,North,0,4.0,10.0,78,0.00,,---,0.00,VWS V14.01,2013-03-11 11:45:00,
2013-03-11 06:50:00,26.0,20.1,29.76,NNE,25,6.0,7.0,78,0.00,,OVC017,0.00,VWS V14.01,2013-03-11 11:50:00,
2013-03-11 06:52:00,26.1,19.9,29.76,NNW,339,5.0,12.0,77,0.00,,OVC017,0.00,VWS V14.01,2013-03-11 11:52:00,
2013-03-11 06:55:00,26.0,20.1,29.76,North,0,5.0,15.0,78,0.00,,---,0.00,VWS V14.01,2013-03-11 11:55:00,
2013-03-11 07:00:00,26.0,20.1,29.76,NNW,344,2.0,12.0,78,0.00,,OVC015,0.00,VWS V14.01,2013-03-11 12:00:00,
2013-03-11 07:02:00,26.1,19.9,29.76,NNW,339,7.0,10.0,77,0.00,,OVC017,0.00,VWS V14.01,2013-03-11 12:02:00,
2013-03-11 07:05:00,26.0,20.1,29.76,North,0,5.0,13.0,78,0.00,,---,0.00,VWS V14.01,2013-03-11 12:05:00,
2013-03-11 07:07:00,26.1,19.9,29.76,NNE,16,3.0,16.0,77,0.00,,OVC017,0.00,VWS V14.01,2013-03-11 12:07:00,
2013-03-11 07:10:00,26.0,20.1,29.76,NNW,338,4.0,13.0,78,0.00,,---,0.00,VWS V14.01,2013-03-11 12:10:00,
2013-03-11 07:12:00,26.1,20.2,29.76,North,5,2.0,9.0,78,0.00,,OVC017,0.00,VWS V14.01,2013-03-11 12:12:00,
2013-03-11 07:15:00,26.0,20.1,29.77,North,0,5.0,16.0,78,0.00,,---,0.00,VWS V14.01,2013-03-11 12:15:00,
2013-03-11 07:17:00,26.1,19.9,29.76,NNW,344,4.0,12.0,77,0.00,,OVC017,0.00,VWS V14.01,2013-03-11 12:17:00,
2013-03-11 07:20:00,26.0,20.1,29.77,NW,320,6.0,15.0,78,0.00,,OVC015,0.00,VWS V14.01,2013-03-11 12:20:00,
2013-03-11 07:25:00,26.0,20.1,29.77,NNW,338,5.0,10.0,78,0.00,,---,0.00,VWS V14.01,2013-03-11 12:25:00,
2013-03-11 07:27:00,26.0,19.8,29.76,North,11,3.0,6.0,77,0.00,,OVC017,0.00,VWS V14.01,2013-03-11 12:27:00,
2013-03-11 07:30:00,26.0,20.1,29.77,North,0,3.0,11.0,78,0.00,,---,0.00,VWS V14.01,2013-03-11 12:30:00,
2013-03-11 07:35:00,25.8,19.9,29.77,North,0,4.0,10.0,78,0.00,,---,0.00,VWS V14.01,2013-03-11 12:35:00,
2013-03-11 07:37:00,26.0,19.8,29.76,North,360,3.0,11.0,77,0.00,,OVC017,0.00,VWS V14.01,2013-03-11 12:37:00,
2013-03-11 07:40:00,25.8,19.9,29.77,NNW,338,5.0,14.0,78,0.00,,---,0.00,VWS V14.01,2013-03-11 12:40:00,
2013-03-11 07:42:00,26.0,20.1,29.76,North,355,4.0,7.0,78,0.00,,OVC017,0.00,VWS V14.01,2013-03-11 12:42:00,
2013-03-11 07:45:00,25.8,19.9,29.77,North,0,5.0,11.0,78,0.00,,---,0.00,VWS V14.01,2013-03-11 12:45:00,
2013-03-11 07:50:00,25.8,19.9,29.77,NNW,338,6.0,14.0,78,0.00,,---,0.00,VWS V14.01,2013-03-11 12:50:00,
2013-03-11 07:55:00,25.8,19.9,29.77,NNW,338,6.0,15.0,78,0.00,,---,0.00,VWS V14.01,2013-03-11 12:55:00,
2013-03-11 07:57:00,26.0,20.1,29.76,North,355,12.0,15.0,78,0.00,,OVC017,0.00,VWS V14.01,2013-03-11 12:57:00,
2013-03-11 08:00:00,25.8,19.9,29.77,NNW,338,7.0,15.0,78,0.00,,---,0.00,VWS V14.01,2013-03-11 13:00:00,
2013-03-11 08:05:00,25.8,19.9,29.77,North,0,4.0,11.0,78,0.00,,---,0.00,VWS V14.01,2013-03-11 13:05:00,
2013-03-11 08:07:00,26.0,20.1,29.76,NNW,340,5.0,13.0,78,0.00,,OVC015,0.00,VWS V14.01,2013-03-11 13:07:00,
2013-03-11 08:10:00,25.8,19.9,29.77,NNW,338,6.0,14.0,78,0.00,,---,0.00,VWS V14.01,2013-03-11 13:10:00,
2013-03-11 08:12:00,26.0,20.1,29.76,NNW,346,6.0,13.0,78,0.00,,OVC015,0.00,VWS V14.01,2013-03-11 13:12:00,
2013-03-11 08:15:00,25.8,19.9,29.77,NNW,338,7.0,17.0,78,0.00,,---,0.00,VWS V14.01,2013-03-11 13:15:00,
2013-03-11 08:17:00,26.0,20.1,29.77,NNE,17,5.0,16.0,78,0.00,,OVC015,0.00,VWS V14.01,2013-03-11 13:17:00,
2013-03-11 08:20:00,25.8,20.2,29.77,North,0,4.0,9.0,79,0.00,,---,0.00,VWS V14.01,2013-03-11 13:20:00,
2013-03-11 08:25:00,26.0,20.1,29.77,NNW,333,3.0,14.0,78,0.00,,OVC015,0.00,VWS V14.01,2013-03-11 13:25:00,
2013-03-11 08:27:00,26.0,20.1,29.77,NNW,348,4.0,10.0,78,0.00,,OVC015,0.00,VWS V14.01,2013-03-11 13:27:00,
2013-03-11 08:30:00,26.0,20.4,29.77,NNW,338,7.0,14.0,79,0.00,,---,0.00,VWS V14.01,2013-03-11 13:30:00,
2013-03-11 08:35:00,26.0,20.1,29.77,NNW,336,17.0,18.0,78,0.00,,OVC015,0.00,VWS V14.01,2013-03-11 13:35:00,
2013-03-11 08:37:00,25.8,19.9,29.77,NNW,340,3.0,10.0,78,0.00,,OVC015,0.00,VWS V14.01,2013-03-11 13:37:00,
2013-03-11 08:40:00,26.0,20.1,29.77,North,5,12.0,17.0,78,0.00,,OVC015,0.00,VWS V14.01,2013-03-11 13:40:00,
2013-03-11 08:45:00,26.0,20.4,29.77,North,0,7.0,16.0,79,0.00,,---,0.00,VWS V14.01,2013-03-11 13:45:00,
2013-03-11 08:47:00,25.8,19.9,29.77,North,360,3.0,11.0,78,0.00,,OVC015,0.00,VWS V14.01,2013-03-11 13:47:00,
2013-03-11 08:50:00,26.1,20.5,29.77,North,0,7.0,14.0,79,0.00,,---,0.00,VWS V14.01,2013-03-11 13:50:00,
2013-03-11 08:52:00,25.8,19.9,29.77,North,360,1.0,14.0,78,0.00,,OVC015,0.00,VWS V14.01,2013-03-11 13:52:00,
2013-03-11 08:55:00,26.1,20.5,29.77,NNW,338,6.0,15.0,79,0.00,,---,0.00,VWS V14.01,2013-03-11 13:55:00,
2013-03-11 09:00:00,26.1,20.5,29.77,North,5,2.0,14.0,79,0.00,,OVC015,0.00,VWS V14.01,2013-03-11 14:00:00,
2013-03-11 09:02:00,25.8,19.9,29.77,NNW,340,2.0,14.0,78,0.00,,OVC015,0.00,VWS V14.01,2013-03-11 14:02:00,
2013-03-11 09:05:00,26.1,20.5,29.77,NNE,22,6.0,15.0,79,0.00,,---,0.00,VWS V14.01,2013-03-11 14:05:00,
2013-03-11 09:07:00,25.8,19.9,29.77,NW,313,3.0,11.0,78,0.00,,OVC015,0.00,VWS V14.01,2013-03-11 14:07:00,
2013-03-11 09:10:00,26.3,20.7,29.77,North,0,3.0,7.0,79,0.00,,---,0.00,VWS V14.01,2013-03-11 14:10:00,
2013-03-11 09:15:00,26.4,21.1,29.77,North,0,4.0,9.0,80,0.00,,---,0.00,VWS V14.01,2013-03-11 14:15:00,
2013-03-11 09:17:00,25.8,19.9,29.77,NW,324,7.0,17.0,78,0.00,,OVC015,0.00,VWS V14.01,2013-03-11 14:17:00,
2013-03-11 09:20:00,26.4,21.1,29.77,North,0,4.0,10.0,80,0.00,,---,0.00,VWS V14.01,2013-03-11 14:20:00,
2013-03-11 09:22:00,25.8,20.2,29.77,NW,321,5.0,9.0,79,0.00,,OVC015,0.00,VWS V14.01,2013-03-11 14:22:00,
2013-03-11 09:25:00,26.4,20.8,29.77,North,0,6.0,15.0,79,0.00,,---,0.00,VWS V14.01,2013-03-11 14:25:00,
2013-03-11 09:30:00,26.4,21.1,29.76,North,0,4.0,12.0,80,0.00,,---,0.00,VWS V14.01,2013-03-11 14:30:00,
2013-03-11 09:32:00,26.0,20.4,29.77,North,360,6.0,14.0,79,0.00,,OVC015,0.00,VWS V14.01,2013-03-11 14:32:00,
2013-03-11 09:35:00,26.7,21.4,29.76,North,0,4.0,9.0,80,0.00,,---,0.00,VWS V14.01,2013-03-11 14:35:00,
2013-03-11 09:40:00,26.7,21.1,29.76,North,0,5.0,11.0,79,0.00,,---,0.00,VWS V14.01,2013-03-11 14:40:00,
2013-03-11 09:45:00,26.7,21.1,29.76,North,0,7.0,15.0,79,0.00,,---,0.00,VWS V14.01,2013-03-11 14:45:00,
2013-03-11 09:47:00,26.0,20.4,29.77,NNW,343,9.0,15.0,79,0.00,,OVC015,0.00,VWS V14.01,2013-03-11 14:47:00,
2013-03-11 09:50:00,26.9,21.3,29.76,North,0,5.0,14.0,79,0.00,,---,0.00,VWS V14.01,2013-03-11 14:50:00,
2013-03-11 09:55:00,27.0,21.4,29.76,NNW,344,9.0,15.0,79,0.00,,OVC013,0.00,VWS V14.01,2013-03-11 14:55:00,
2013-03-11 09:57:00,26.1,20.5,29.77,North,360,11.0,15.0,79,0.00,,OVC015,0.00,VWS V14.01,2013-03-11 14:57:00,
2013-03-11 10:00:00,27.0,21.4,29.76,North,0,7.0,15.0,79,0.00,,---,0.00,VWS V14.01,2013-03-11 15:00:00,
2013-03-11 10:05:00,27.0,21.1,29.76,North,0,6.0,14.0,78,0.00,,---,0.00,VWS V14.01,2013-03-11 15:05:00,
2013-03-11 10:07:00,26.1,20.5,29.77,NNE,21,2.0,15.0,79,0.00,,OVC015,0.00,VWS V14.01,2013-03-11 15:07:00,
2013-03-11 10:10:00,27.2,21.6,29.76,NNE,22,4.0,9.0,79,0.00,,---,0.00,VWS V14.01,2013-03-11 15:10:00,
2013-03-11 10:12:00,26.3,20.7,29.77,North,360,3.0,7.0,79,0.00,,OVC015,0.00,VWS V14.01,2013-03-11 15:12:00,
2013-03-11 10:15:00,27.5,21.9,29.76,North,0,5.0,12.0,79,0.00,,---,0.00,VWS V14.01,2013-03-11 15:15:00,
2013-03-11 10:17:00,26.4,21.1,29.77,NNW,347,4.0,9.0,80,0.00,,OVC013,0.00,VWS V14.01,2013-03-11 15:17:00,
2013-03-11 10:20:00,27.5,21.5,29.76,North,0,4.0,13.0,78,0.00,,---,0.00,VWS V14.01,2013-03-11 15:20:00,
2013-03-11 10:22:00,26.4,21.1,29.77,NNE,16,10.0,10.0,80,0.00,,OVC013,0.00,VWS V14.01,2013-03-11 15:22:00,
2013-03-11 10:25:00,27.5,21.5,29.76,NNW,338,4.0,11.0,78,0.00,,---,0.00,VWS V14.01,2013-03-11 15:25:00,
2013-03-11 10:27:00,26.4,20.8,29.77,NNW,348,5.0,15.0,79,0.00,,OVC013,0.00,VWS V14.01,2013-03-11 15:27:00,
2013-03-11 10:30:00,27.5,21.5,29.76,NNW,338,6.0,14.0,78,0.00,,---,0.00,VWS V14.01,2013-03-11 15:30:00,
2013-03-11 10:32:00,26.4,21.1,29.76,North,10,7.0,12.0,80,0.00,,OVC013,0.00,VWS V14.01,2013-03-11 15:32:00,
2013-03-11 10:35:00,27.3,21.4,29.76,NNW,338,6.0,14.0,78,0.00,,---,0.00,VWS V14.01,2013-03-11 15:35:00,
2013-03-11 10:37:00,26.7,21.4,29.76,NW,318,2.0,9.0,80,0.00,,OVC013,0.00,VWS V14.01,2013-03-11 15:37:00,
2013-03-11 10:40:00,27.5,21.5,29.76,NNW,338,11.0,14.0,78,0.00,,OVC013,0.00,VWS V14.01,2013-03-11 15:40:00,
2013-03-11 10:42:00,26.7,21.1,29.76,North,360,2.0,11.0,79,0.00,,OVC013,0.00,VWS V14.01,2013-03-11 15:42:00,
2013-03-11 10:45:00,27.5,21.5,29.75,NNW,338,6.0,13.0,78,0.00,,---,0.00,VWS V14.01,2013-03-11 15:45:00,
2013-03-11 10:47:00,26.7,21.1,29.76,NNE,12,3.0,13.0,79,0.00,,OVC013,0.00,VWS V14.01,2013-03-11 15:47:00,
2013-03-11 10:50:00,27.5,21.2,29.75,North,0,4.0,11.0,77,0.00,,---,0.00,VWS V14.01,2013-03-11 15:50:00,
2013-03-11 10:52:00,26.9,21.3,29.76,NNW,346,5.0,14.0,79,0.00,,OVC013,0.00,VWS V14.01,2013-03-11 15:52:00,
2013-03-11 10:55:00,27.5,21.5,29.75,NNW,338,6.0,14.0,78,0.00,,---,0.00,VWS V14.01,2013-03-11 15:55:00,
2013-03-11 11:00:00,27.3,21.1,29.75,North,0,5.0,11.0,77,0.00,,---,0.00,VWS V14.01,2013-03-11 16:00:00,
2013-03-11 11:02:00,27.0,21.4,29.76,NNE,14,3.0,15.0,79,0.00,,OVC013,0.00,VWS V14.01,2013-03-11 16:02:00,
2013-03-11 11:05:00,27.3,21.1,29.75,North,0,5.0,10.0,77,0.00,,---,0.00,VWS V14.01,2013-03-11 16:05:00,
2013-03-11 11:10:00,27.3,21.1,29.75,NNE,22,5.0,12.0,77,0.00,,---,0.00,VWS V14.01,2013-03-11 16:10:00,
2013-03-11 11:12:00,27.2,21.6,29.76,NNE,13,4.0,9.0,79,0.00,,OVC013,0.00,VWS V14.01,2013-03-11 16:12:00,
2013-03-11 11:15:00,27.3,21.1,29.74,North,0,5.0,12.0,77,0.00,,---,0.00,VWS V14.01,2013-03-11 16:15:00,
2013-03-11 11:20:00,27.5,21.2,29.74,NW,314,2.0,15.0,77,0.00,,OVC013,0.00,VWS V14.01,2013-03-11 16:20:00,
2013-03-11 11:22:00,27.5,21.5,29.76,NNE,12,4.0,13.0,78,0.00,,OVC013,0.00,VWS V14.01,2013-03-11 16:22:00,
2013-03-11 11:25:00,27.3,21.1,29.74,North,0,5.0,12.0,77,0.00,,---,0.00,VWS V14.01,2013-03-11 16:25:00,
2013-03-11 11:27:00,27.5,21.5,29.76,North,350,8.0,11.0,78,0.00,,OVC013,0.00,VWS V14.01,2013-03-11 16:27:00,
2013-03-11 11:30:00,27.5,21.2,29.74,North,11,4.0,13.0,77,0.00,,OVC013,0.00,VWS V14.01,2013-03-11 16:30:00,
2013-03-11 11:32:00,27.5,21.5,29.76,NNW,328,5.0,13.0,78,0.00,,OVC013,0.00,VWS V14.01,2013-03-11 16:32:00,
2013-03-11 11:35:00,27.5,21.2,29.74,NNW,338,6.0,12.0,77,0.00,,---,0.00,VWS V14.01,2013-03-11 16:35:00,
2013-03-11 11:37:00,27.3,21.4,29.76,NNW,346,5.0,14.0,78,0.00,,OVC013,0.00,VWS V14.01,2013-03-11 16:37:00,
2013-03-11 11:40:00,27.6,21.4,29.74,North,5,2.0,13.0,77,0.00,,OVC013,0.00,VWS V14.01,2013-03-11 16:40:00,
2013-03-11 11:45:00,27.6,21.4,29.74,North,0,5.0,12.0,77,0.00,,---,0.00,VWS V14.01,2013-03-11 16:45:00,
2013-03-11 11:47:00,27.5,21.5,29.75,North,355,1.0,13.0,78,0.00,,OVC013,0.00,VWS V14.01,2013-03-11 16:47:00,
2013-03-11 11:50:00,27.8,21.5,29.74,North,0,4.0,9.0,77,0.00,,---,0.00,VWS V14.01,2013-03-11 16:50:00,
2013-03-11 11:52:00,27.5,21.2,29.75,North,5,5.0,11.0,77,0.00,,OVC013,0.00,VWS V14.01,2013-03-11 16:52:00,
2013-03-11 11:55:00,27.9,21.3,29.74,NNW,338,6.0,12.0,76,0.00,,---,0.00,VWS V14.01,2013-03-11 16:55:00,
2013-03-11 11:57:00,27.5,21.5,29.75,NNW,343,7.0,14.0,78,0.00,,OVC013,0.00,VWS V14.01,2013-03-11 16:57:00,
2013-03-11 12:00:00,28.1,21.5,29.74,NNE,13,3.0,7.0,76,0.00,,OVC013,0.00,VWS V14.01,2013-03-11 17:00:00,
2013-03-11 12:05:00,28.1,21.5,29.74,NNE,22,3.0,7.0,76,0.00,,---,0.00,VWS V14.01,2013-03-11 17:05:00,
2013-03-11 12:07:00,27.3,21.1,29.75,NNW,338,8.0,10.0,77,0.00,,OVC013,0.00,VWS V14.01,2013-03-11 17:07:00,
2013-03-11 12:10:00,28.2,21.6,29.74,North,0,3.0,12.0,76,0.00,,---,0.00,VWS V14.01,2013-03-11 17:10:00,
2013-03-11 12:15:00,28.2,21.6,29.73,North,5,4.0,12.0,76,0.00,,OVC013,0.00,VWS V14.01,2013-03-11 17:15:00,
2013-03-11 12:17:00,27.3,21.1,29.74,NNW,348,5.0,12.0,77,0.00,,OVC013,0.00,VWS V14.01,2013-03-11 17:17:00,
2013-03-11 12:20:00,28.2,21.6,29.73,NNW,338,4.0,10.0,76,0.00,,---,0.00,VWS V14.01,2013-03-11 17:20:00,
2013-03-11 12:25:00,28.2,21.3,29.73,NNW,338,6.0,13.0,75,0.00,,---,0.00,VWS V14.01,2013-03-11 17:25:00,
2013-03-11 12:27:00,27.3,21.1,29.74,North,355,9.0,11.0,77,0.00,,OVC013,0.00,VWS V14.01,2013-03-11 17:27:00,
2013-03-11 12:30:00,28.4,21.5,29.73,NNW,338,5.0,12.0,75,0.00,,---,0.00,VWS V14.01,2013-03-11 17:30:00,
2013-03-11 12:35:00,28.4,21.5,29.73,NNW,338,5.0,14.0,75,0.00,,---,0.00,VWS V14.01,2013-03-11 17:35:00,
2013-03-11 12:37:00,27.5,21.2,29.74,NNW,348,10.0,12.0,77,0.00,,OVC013,0.00,VWS V14.01,2013-03-11 17:37:00,
2013-03-11 12:40:00,28.4,21.5,29.73,NNW,338,5.0,13.0,75,0.00,,---,0.00,VWS V14.01,2013-03-11 17:40:00,
2013-03-11 12:45:00,28.4,21.5,29.72,North,360,5.0,13.0,75,0.00,,OVC015,0.00,VWS V14.01,2013-03-11 17:45:00,
2013-03-11 12:47:00,27.6,21.4,29.74,North,360,4.0,12.0,77,0.00,,OVC013,0.00,VWS V14.01,2013-03-11 17:47:00,
2013-03-11 12:50:00,28.5,21.6,29.72,NNW,348,2.0,13.0,75,0.00,,OVC015,0.00,VWS V14.01,2013-03-11 17:50:00,
2013-03-11 12:52:00,27.8,21.5,29.74,NNW,348,3.0,9.0,77,0.00,,OVC013,0.00,VWS V14.01,2013-03-11 17:52:00,
2013-03-11 12:55:00,28.7,21.5,29.72,NNW,338,6.0,14.0,74,0.00,,---,0.00,VWS V14.01,2013-03-11 17:55:00,
2013-03-11 12:57:00,27.9,21.3,29.74,NNW,344,5.0,12.0,76,0.00,,OVC013,0.00,VWS V14.01,2013-03-11 17:57:00,
2013-03-11 13:00:00,28.8,21.6,29.71,NNW,338,6.0,14.0,74,0.00,,---,0.00,VWS V14.01,2013-03-11 18:00:00,
2013-03-11 13:05:00,28.8,21.6,29.71,NNW,338,5.0,12.0,74,0.00,,---,0.00,VWS V14.01,2013-03-11 18:05:00,
2013-03-11 13:07:00,28.1,21.5,29.74,NNW,336,2.0,7.0,76,0.00,,OVC013,0.00,VWS V14.01,2013-03-11 18:07:00,
2013-03-11 13:10:00,29.1,21.9,29.71,NNW,342,5.0,13.0,74,0.00,,OVC015,0.00,VWS V14.01,2013-03-11 18:10:00,
2013-03-11 13:12:00,28.2,21.6,29.74,NW,319,3.0,12.0,76,0.00,,OVC013,0.00,VWS V14.01,2013-03-11 18:12:00,
2013-03-11 13:15:00,29.3,22.1,29.71,NNW,338,4.0,12.0,74,0.00,,---,0.00,VWS V14.01,2013-03-11 18:15:00,
2013-03-11 13:20:00,29.3,21.7,29.71,NNW,338,5.0,12.0,73,0.00,,---,0.00,VWS V14.01,2013-03-11 18:20:00,
2013-03-11 13:22:00,28.2,21.6,29.73,NNW,338,1.0,10.0,76,0.00,,OVC013,0.00,VWS V14.01,2013-03-11 18:22:00,
2013-03-11 13:25:00,29.4,21.5,29.71,North,0,4.0,8.0,72,0.00,,---,0.00,VWS V14.01,2013-03-11 18:25:00,
2013-03-11 13:30:00,29.3,21.1,29.71,NNW,338,6.0,14.0,71,0.00,,---,0.00,VWS V14.01,2013-03-11 18:30:00,
2013-03-11 13:32:00,28.4,21.5,29.73,NW,309,4.0,12.0,75,0.00,,OVC013,0.00,VWS V14.01,2013-03-11 18:32:00,
2013-03-11 13:35:00,29.4,21.2,29.71,North,0,3.0,13.0,71,0.00,,---,0.00,VWS V14.01,2013-03-11 18:35:00,
2013-03-11 13:37:00,28.4,21.5,29.73,NNW,344,4.0,13.0,75,0.00,,OVC013,0.00,VWS V14.01,2013-03-11 18:37:00,
2013-03-11 13:40:00,29.5,20.9,29.71,NNW,338,4.0,12.0,70,0.00,,---,0.00,VWS V14.01,2013-03-11 18:40:00,
2013-03-11 13:42:00,28.4,21.5,29.73,NNW,337,3.0,13.0,75,0.00,,OVC013,0.00,VWS V14.01,2013-03-11 18:42:00,
2013-03-11 13:45:00,29.7,21.1,29.71,NNW,338,4.0,11.0,70,0.00,,---,0.00,VWS V14.01,2013-03-11 18:45:00,
2013-03-11 13:50:00,29.8,21.2,29.71,NNW,338,5.0,12.0,70,0.00,,---,0.00,VWS V14.01,2013-03-11 18:50:00,
2013-03-11 13:55:00,29.7,20.8,29.71,NW,315,6.0,13.0,69,0.00,,---,0.00,VWS V14.01,2013-03-11 18:55:00,
2013-03-11 13:57:00,28.7,21.5,29.72,NNW,327,9.0,13.0,74,0.00,,OVC015,0.00,VWS V14.01,2013-03-11 18:57:00,
2013-03-11 14:00:00,29.5,20.6,29.71,NNW,338,4.0,11.0,69,0.00,,---,0.00,VWS V14.01,2013-03-11 19:00:00,
2013-03-11 14:02:00,28.8,21.6,29.71,NNW,337,4.0,14.0,74,0.00,,OVC015,0.00,VWS V14.01,2013-03-11 19:02:00,
2013-03-11 14:05:00,29.7,20.8,29.71,NNW,338,4.0,9.0,69,0.00,,---,0.00,VWS V14.01,2013-03-11 19:05:00,
2013-03-11 14:07:00,28.8,21.6,29.71,NNW,342,3.0,12.0,74,0.00,,OVC015,0.00,VWS V14.01,2013-03-11 19:07:00,
2013-03-11 14:10:00,29.7,20.5,29.71,NNW,338,4.0,10.0,68,0.00,,---,0.00,VWS V14.01,2013-03-11 19:10:00,
2013-03-11 14:15:00,29.8,20.5,29.71,NW,315,3.0,13.0,68,0.00,,---,0.00,VWS V14.01,2013-03-11 19:15:00,
2013-03-11 14:17:00,29.3,22.1,29.71,North,5,4.0,12.0,74,0.00,,OVC015,0.00,VWS V14.01,2013-03-11 19:17:00,
2013-03-11 14:20:00,29.8,20.5,29.71,NNW,338,4.0,11.0,68,0.00,,---,0.00,VWS V14.01,2013-03-11 19:20:00,
2013-03-11 14:25:00,29.8,20.5,29.71,NNW,338,4.0,9.0,68,0.00,,---,0.00,VWS V14.01,2013-03-11 19:25:00,
2013-03-11 14:27:00,29.4,21.5,29.71,North,5,5.0,8.0,72,0.00,,OVC015,0.00,VWS V14.01,2013-03-11 19:27:00,
2013-03-11 14:30:00,29.8,20.2,29.71,North,0,4.0,13.0,67,0.00,,---,0.00,VWS V14.01,2013-03-11 19:30:00,
2013-03-11 14:32:00,29.3,21.1,29.71,North,355,4.0,14.0,71,0.00,,OVC015,0.00,VWS V14.01,2013-03-11 19:32:00,
2013-03-11 14:35:00,29.8,20.5,29.71,NNW,338,3.0,7.0,68,0.00,,---,0.00,VWS V14.01,2013-03-11 19:35:00,
2013-03-11 14:40:00,29.8,20.5,29.71,NNW,338,5.0,12.0,68,0.00,,---,0.00,VWS V14.01,2013-03-11 19:40:00,
2013-03-11 14:42:00,29.5,20.9,29.71,NW,316,4.0,12.0,70,0.00,,OVC015,0.00,VWS V14.01,2013-03-11 19:42:00,
2013-03-11 14:45:00,29.7,20.5,29.71,NNW,338,3.0,10.0,68,0.00,,---,0.00,VWS V14.01,2013-03-11 19:45:00,
2013-03-11 14:50:00,29.8,20.2,29.71,North,0,1.0,5.0,67,0.00,,---,0.00,VWS V14.01,2013-03-11 19:50:00,
2013-03-11 14:52:00,29.8,21.2,29.71,NNW,336,5.0,12.0,70,0.00,,OVC015,0.00,VWS V14.01,2013-03-11 19:52:00,
2013-03-11 14:55:00,30.1,20.5,29.71,NNE,22,1.0,6.0,67,0.00,,---,0.00,VWS V14.01,2013-03-11 19:55:00,
2013-03-11 15:00:00,30.1,20.1,29.71,NNW,338,6.0,13.0,66,0.00,,---,0.00,VWS V14.01,2013-03-11 20:00:00,
2013-03-11 15:02:00,29.5,20.6,29.71,NW,322,1.0,11.0,69,0.00,,OVC032,0.00,VWS V14.01,2013-03-11 20:02:00,
2013-03-11 15:05:00,30.1,20.1,29.71,North,0,4.0,9.0,66,0.00,,---,0.00,VWS V14.01,2013-03-11 20:05:00,
2013-03-11 15:07:00,29.7,20.8,29.71,NNW,336,4.0,9.0,69,0.00,,OVC032,0.00,VWS V14.01,2013-03-11 20:07:00,
2013-03-11 15:10:00,30.1,20.1,29.71,NNW,338,6.0,12.0,66,0.00,,---,0.00,VWS V14.01,2013-03-11 20:10:00,
2013-03-11 15:12:00,29.7,20.5,29.71,NNW,338,1.0,10.0,68,0.00,,OVC032,0.00,VWS V14.01,2013-03-11 20:12:00,
2013-03-11 15:15:00,30.1,20.1,29.72,NNW,338,4.0,10.0,66,0.00,,---,0.00,VWS V14.01,2013-03-11 20:15:00,
2013-03-11 15:20:00,30.0,20.0,29.72,North,0,2.0,9.0,66,0.00,,---,0.00,VWS V14.01,2013-03-11 20:20:00,
2013-03-11 15:22:00,29.8,20.5,29.71,NNW,346,5.0,11.0,68,0.00,,OVC032,0.00,VWS V14.01,2013-03-11 20:22:00,
2013-03-11 15:25:00,30.0,20.0,29.72,NNW,338,4.0,11.0,66,0.00,,---,0.00,VWS V14.01,2013-03-11 20:25:00,
2013-03-11 15:27:00,29.8,20.5,29.71,NNW,327,4.0,9.0,68,0.00,,OVC032,0.00,VWS V14.01,2013-03-11 20:27:00,
2013-03-11 15:30:00,30.1,20.5,29.72,NNW,338,3.0,7.0,67,0.00,,---,0.00,VWS V14.01,2013-03-11 20:30:00,
2013-03-11 15:32:00,29.8,20.2,29.71,NNW,340,3.0,13.0,67,0.00,,OVC032,0.00,VWS V14.01,2013-03-11 20:32:00,
2013-03-11 15:35:00,30.1,20.5,29.72,North,0,1.0,7.0,67,0.00,,---,0.00,VWS V14.01,2013-03-11 20:35:00,
2013-03-11 15:37:00,29.8,20.5,29.71,NNW,343,7.0,7.0,68,0.00,,OVC032,0.00,VWS V14.01,2013-03-11 20:37:00,
2013-03-11 15:40:00,30.1,20.1,29.72,NNW,338,1.0,10.0,66,0.00,,---,0.00,VWS V14.01,2013-03-11 20:40:00,
2013-03-11 15:42:00,29.8,20.5,29.71,North,351,3.0,12.0,68,0.00,,OVC032,0.00,VWS V14.01,2013-03-11 20:42:00,
2013-03-11 15:45:00,30.1,20.1,29.72,North,0,1.0,6.0,66,0.00,,---,0.00,VWS V14.01,2013-03-11 20:45:00,
2013-03-11 15:50:00,30.3,20.3,29.72,NNW,338,2.0,5.0,66,0.00,,---,0.00,VWS V14.01,2013-03-11 20:50:00,
2013-03-11 15:52:00,29.8,20.2,29.71,North,355,4.0,5.0,67,0.00,,OVC032,0.00,VWS V14.01,2013-03-11 20:52:00,
2013-03-11 15:55:00,30.3,20.7,29.72,NW,315,2.0,6.0,67,0.00,,---,0.00,VWS V14.01,2013-03-11 20:55:00,
2013-03-11 16:00:00,30.1,20.1,29.72,NNW,338,4.0,9.0,66,0.00,,---,0.00,VWS V14.01,2013-03-11 21:00:00,
2013-03-11 16:02:00,30.1,20.1,29.71,NNE,19,3.0,13.0,66,0.00,,OVC027,0.00,VWS V14.01,2013-03-11 21:02:00,
2013-03-11 16:05:00,30.1,20.5,29.72,NW,315,4.0,12.0,67,0.00,,---,0.00,VWS V14.01,2013-03-11 21:05:00,
2013-03-11 16:07:00,30.1,20.1,29.71,NNW,346,2.0,9.0,66,0.00,,OVC027,0.00,VWS V14.01,2013-03-11 21:07:00,
2013-03-11 16:10:00,30.1,20.1,29.72,NW,315,3.0,6.0,66,0.00,,---,0.00,VWS V14.01,2013-03-11 21:10:00,
2013-03-11 16:12:00,30.1,20.1,29.71,NNW,341,10.0,12.0,66,0.00,,OVC027,0.00,VWS V14.01,2013-03-11 21:12:00,
2013-03-11 16:15:00,30.1,20.5,29.71,WNW,292,2.0,9.0,67,0.00,,---,0.00,VWS V14.01,2013-03-11 21:15:00,
2013-03-11 16:20:00,30.3,20.7,29.71,NNW,338,3.0,7.0,67,0.00,,---,0.00,VWS V14.01,2013-03-11 21:20:00,
2013-03-11 16:22:00,30.0,20.0,29.72,NNW,347,7.0,9.0,66,0.00,,OVC027,0.00,VWS V14.01,2013-03-11 21:22:00,
2013-03-11 16:25:00,30.3,20.3,29.71,NNW,338,5.0,12.0,66,0.00,,---,0.00,VWS V14.01,2013-03-11 21:25:00,
2013-03-11 16:27:00,30.0,20.0,29.72,NNW,337,3.0,11.0,66,0.00,,OVC027,0.00,VWS V14.01,2013-03-11 21:27:00,
2013-03-11 16:30:00,30.4,20.4,29.72,NNW,338,3.0,7.0,66,0.00,,---,0.00,VWS V14.01,2013-03-11 21:30:00,
2013-03-11 16:35:00,30.4,20.1,29.72,NW,315,5.0,13.0,65,0.00,,---,0.00,VWS V14.01,2013-03-11 21:35:00,
2013-03-11 16:37:00,30.1,20.5,29.72,NNW,346,5.0,7.0,67,0.00,,OVC027,0.00,VWS V14.01,2013-03-11 21:37:00,
2013-03-11 16:40:00,30.3,20.0,29.72,NW,315,3.0,11.0,65,0.00,,---,0.00,VWS V14.01,2013-03-11 21:40:00,
2013-03-11 16:42:00,30.1,20.1,29.72,NNW,346,3.0,9.0,66,0.00,,OVC027,0.00,VWS V14.01,2013-03-11 21:42:00,
2013-03-11 16:45:00,30.3,20.0,29.73,NW,315,2.0,8.0,65,0.00,,---,0.00,VWS V14.01,2013-03-11 21:45:00,
2013-03-11 16:50:00,30.1,19.8,29.73,NW,315,2.0,6.0,65,0.00,,---,0.00,VWS V14.01,2013-03-11 21:50:00,
2013-03-11 16:52:00,30.3,20.3,29.72,WNW,302,0.0,5.0,66,0.00,,OVC027,0.00,VWS V14.01,2013-03-11 21:52:00,
2013-03-11 16:55:00,30.1,19.8,29.73,NNW,338,3.0,12.0,65,0.00,,---,0.00,VWS V14.01,2013-03-11 21:55:00,
2013-03-11 17:00:00,30.0,20.0,29.73,NW,315,2.0,7.0,66,0.00,,---,0.00,VWS V14.01,2013-03-11 22:00:00,
2013-03-11 17:02:00,30.1,20.1,29.72,NW,304,4.0,9.0,66,0.00,,OVC029,0.00,VWS V14.01,2013-03-11 22:02:00,
2013-03-11 17:05:00,29.8,19.8,29.73,WNW,292,5.0,14.0,66,0.00,,---,0.00,VWS V14.01,2013-03-11 22:05:00,
2013-03-11 17:10:00,29.7,20.1,29.73,NNW,338,7.0,13.0,67,0.00,,---,0.00,VWS V14.01,2013-03-11 22:10:00,
2013-03-11 17:12:00,30.1,20.1,29.72,WNW,289,5.0,9.0,66,0.00,,OVC029,0.00,VWS V14.01,2013-03-11 22:12:00,
2013-03-11 17:15:00,29.5,19.9,29.73,NW,315,4.0,14.0,67,0.00,,---,0.00,VWS V14.01,2013-03-11 22:15:00,
2013-03-11 17:20:00,29.5,19.9,29.73,NW,315,6.0,16.0,67,0.00,,---,0.00,VWS V14.01,2013-03-11 22:20:00,
2013-03-11 17:22:00,30.3,20.7,29.71,WNW,298,3.0,7.0,67,0.00,,OVC029,0.00,VWS V14.01,2013-03-11 22:22:00,
2013-03-11 17:25:00,29.4,20.2,29.73,NW,315,5.0,14.0,68,0.00,,---,0.00,VWS V14.01,2013-03-11 22:25:00,
2013-03-11 17:30:00,29.4,20.2,29.74,NW,315,4.0,11.0,68,0.00,,---,0.00,VWS V14.01,2013-03-11 22:30:00,
2013-03-11 17:32:00,30.4,20.4,29.72,NW,312,4.0,7.0,66,0.00,,OVC029,0.00,VWS V14.01,2013-03-11 22:32:00,
2013-03-11 17:35:00,29.3,19.7,29.74,NW,315,4.0,14.0,67,0.00,,---,0.00,VWS V14.01,2013-03-11 22:35:00,
2013-03-11 17:37:00,30.4,20.1,29.72,NW,304,4.0,13.0,65,0.00,,OVC029,0.00,VWS V14.01,2013-03-11 22:37:00,
2013-03-11 17:40:00,29.1,19.9,29.74,NW,315,5.0,13.0,68,0.00,,---,0.00,VWS V14.01,2013-03-11 22:40:00,
2013-03-11 17:42:00,30.3,20.0,29.72,NNW,329,0.0,11.0,65,0.00,,OVC029,0.00,VWS V14.01,2013-03-11 22:42:00,
2013-03-11 17:45:00,29.0,19.8,29.74,WNW,292,1.0,5.0,68,0.00,,---,0.00,VWS V14.01,2013-03-11 22:45:00,
2013-03-11 17:47:00,30.3,20.0,29.73,North,355,4.0,8.0,65,0.00,,OVC029,0.00,VWS V14.01,2013-03-11 22:47:00,
2013-03-11 17:50:00,29.0,19.8,29.74,NW,315,1.0,5.0,68,0.00,,---,0.00,VWS V14.01,2013-03-11 22:50:00,
2013-03-11 17:52:00,30.1,19.8,29.73,NNW,328,2.0,6.0,65,0.00,,OVC029,0.00,VWS V14.01,2013-03-11 22:52:00,
2013-03-11 17:55:00,28.8,19.6,29.74,NW,315,1.0,5.0,68,0.00,,---,0.00,VWS V14.01,2013-03-11 22:55:00,
2013-03-11 18:00:00,28.7,19.5,29.75,NW,315,1.0,6.0,68,0.00,,---,0.00,VWS V14.01,2013-03-11 23:00:00,
2013-03-11 18:02:00,30.0,20.0,29.73,NNW,329,0.0,7.0,66,0.00,,OVC033,0.00,VWS V14.01,2013-03-11 23:02:00,
2013-03-11 18:05:00,28.5,19.3,29.75,WNW,292,2.0,14.0,68,0.00,,---,0.00,VWS V14.01,2013-03-11 23:05:00,
2013-03-11 18:07:00,29.8,19.8,29.73,NNW,342,9.0,14.0,66,0.00,,OVC033,0.00,VWS V14.01,2013-03-11 23:07:00,
2013-03-11 18:10:00,28.4,19.2,29.75,NW,315,3.0,11.0,68,0.00,,---,0.00,VWS V14.01,2013-03-11 23:10:00,
2013-03-11 18:12:00,29.7,20.1,29.73,NW,315,4.0,13.0,67,0.00,,OVC033,0.00,VWS V14.01,2013-03-11 23:12:00,
2013-03-11 18:15:00,28.4,19.5,29.75,NW,315,2.0,6.0,69,0.00,,---,0.00,VWS V14.01,2013-03-11 23:15:00,
2013-03-11 18:17:00,29.5,19.9,29.73,NNW,344,2.0,12.0,67,0.00,,OVC033,0.00,VWS V14.01,2013-03-11 23:17:00,
2013-03-11 18:20:00,28.2,19.4,29.75,NW,315,2.0,10.0,69,0.00,,---,0.00,VWS V14.01,2013-03-11 23:20:00,
2013-03-11 18:25:00,28.2,19.4,29.75,NW,315,1.0,9.0,69,0.00,,---,0.00,VWS V14.01,2013-03-11 23:25:00,
2013-03-11 18:27:00,29.4,20.2,29.73,West,269,10.0,13.0,68,0.00,,OVC033,0.00,VWS V14.01,2013-03-11 23:27:00,
2013-03-11 18:30:00,28.2,19.4,29.75,NW,315,1.0,5.0,69,0.00,,---,0.00,VWS V14.01,2013-03-11 23:30:00,
2013-03-11 18:32:00,29.4,20.2,29.74,NW,313,2.0,11.0,68,0.00,,OVC033,0.00,VWS V14.01,2013-03-11 23:32:00,
2013-03-11 18:35:00,28.2,19.4,29.75,NW,315,1.0,11.0,69,0.00,,---,0.00,VWS V14.01,2013-03-11 23:35:00,
2013-03-11 18:37:00,29.3,19.7,29.74,NW,321,0.0,14.0,67,0.00,,OVC033,0.00,VWS V14.01,2013-03-11 23:37:00,
2013-03-11 18:40:00,28.2,19.4,29.75,WNW,292,3.0,12.0,69,0.00,,---,0.00,VWS V14.01,2013-03-11 23:40:00,
2013-03-11 18:42:00,29.1,19.9,29.74,NW,322,2.0,13.0,68,0.00,,OVC033,0.00,VWS V14.01,2013-03-11 23:42:00,
2013-03-11 18:45:00,28.1,19.3,29.76,NW,315,1.0,4.0,69,0.00,,---,0.00,VWS V14.01,2013-03-11 23:45:00,
2013-03-11 18:50:00,28.1,19.6,29.76,WNW,292,2.0,10.0,70,0.00,,---,0.00,VWS V14.01,2013-03-11 23:50:00,
2013-03-11 18:52:00,29.0,19.8,29.74,NW,311,3.0,5.0,68,0.00,,OVC033,0.00,VWS V14.01,2013-03-11 23:52:00,
2013-03-11 18:55:00,28.1,19.6,29.76,WNW,292,4.0,12.0,70,0.00,,---,0.00,VWS V14.01,2013-03-11 23:55:00,
2013-03-11 18:57:00,28.8,19.6,29.74,NW,325,2.0,5.0,68,0.00,,OVC033,0.00,VWS V14.01,2013-03-11 23:57:00,
2013-03-11 19:00:00,27.9,19.4,29.76,WNW,292,3.0,10.0,70,0.00,,---,0.00,VWS V14.01,2013-03-12 00:00:00,
2013-03-11 19:02:00,28.7,19.5,29.75,NW,310,0.0,6.0,68,0.00,,BKN085,0.00,VWS V14.01,2013-03-12 00:02:00,
2013-03-11 19:05:00,27.9,19.7,29.76,WNW,292,4.0,14.0,71,0.00,,---,0.00,VWS V14.01,2013-03-12 00:05:00,
2013-03-11 19:07:00,28.5,19.3,29.75,WNW,294,4.0,13.0,68,0.00,,BKN085,0.00,VWS V14.01,2013-03-12 00:07:00,
2013-03-11 19:10:00,27.8,19.6,29.76,WNW,292,2.0,12.0,71,0.00,,---,0.00,VWS V14.01,2013-03-12 00:10:00,
2013-03-11 19:12:00,28.4,19.2,29.75,NW,306,1.0,11.0,68,0.00,,BKN085,0.00,VWS V14.01,2013-03-12 00:12:00,
2013-03-11 19:15:00,27.6,19.8,29.76,WNW,292,2.0,11.0,72,0.00,,---,0.00,VWS V14.01,2013-03-12 00:15:00,
2013-03-11 19:20:00,27.5,19.4,29.76,NW,315,4.0,13.0,71,0.00,,---,0.00,VWS V14.01,2013-03-12 00:20:00,
2013-03-11 19:22:00,28.2,19.4,29.75,NW,318,1.0,10.0,69,0.00,,BKN085,0.00,VWS V14.01,2013-03-12 00:22:00,
2013-03-11 19:25:00,27.3,19.1,29.76,NW,315,3.0,12.0,71,0.00,,---,0.00,VWS V14.01,2013-03-12 00:25:00,
2013-03-11 19:27:00,28.2,19.4,29.75,NW,306,1.0,9.0,69,0.00,,BKN085,0.00,VWS V14.01,2013-03-12 00:27:00,
2013-03-11 19:30:00,27.2,19.1,29.76,NW,315,3.0,11.0,71,0.00,,---,0.00,VWS V14.01,2013-03-12 00:30:00,
2013-03-11 19:32:00,28.2,19.4,29.75,WNW,303,0.0,4.0,69,0.00,,BKN085,0.00,VWS V14.01,2013-03-12 00:32:00,
2013-03-11 19:35:00,27.2,19.1,29.76,WNW,292,4.0,12.0,71,0.00,,---,0.00,VWS V14.01,2013-03-12 00:35:00,
2013-03-11 19:37:00,28.2,19.4,29.75,NW,317,0.0,11.0,69,0.00,,BKN085,0.00,VWS V14.01,2013-03-12 00:37:00,
2013-03-11 19:40:00,27.0,18.9,29.76,WNW,292,2.0,12.0,71,0.00,,---,0.00,VWS V14.01,2013-03-12 00:40:00,
2013-03-11 19:42:00,28.2,19.4,29.75,WNW,302,0.0,12.0,69,0.00,,BKN085,0.00,VWS V14.01,2013-03-12 00:42:00,
2013-03-11 19:45:00,27.0,18.9,29.76,WNW,292,0.0,5.0,71,0.00,,---,0.00,VWS V14.01,2013-03-12 00:45:00,
2013-03-11 19:50:00,26.9,19.1,29.76,WNW,292,2.0,10.0,72,0.00,,---,0.00,VWS V14.01,2013-03-12 00:50:00,
2013-03-11 19:52:00,28.1,19.6,29.76,WNW,293,3.0,10.0,70,0.00,,BKN085,0.00,VWS V14.01,2013-03-12 00:52:00,
2013-03-11 19:55:00,26.9,19.1,29.76,West,270,4.0,11.0,72,0.00,,---,0.00,VWS V14.01,2013-03-12 00:55:00,
2013-03-11 20:00:00,26.7,18.9,29.77,WNW,292,2.0,7.0,72,0.00,,---,0.00,VWS V14.01,2013-03-12 01:00:00,
2013-03-11 20:02:00,27.9,19.4,29.76,WNW,302,3.0,12.0,70,0.00,,OVC060,0.00,VWS V14.01,2013-03-12 01:02:00,
2013-03-11 20:05:00,26.6,18.8,29.77,WNW,292,4.0,11.0,72,0.00,,---,0.00,VWS V14.01,2013-03-12 01:05:00,
2013-03-11 20:07:00,27.9,19.7,29.76,NNW,338,1.0,14.0,71,0.00,,OVC060,0.00,VWS V14.01,2013-03-12 01:07:00,
2013-03-11 20:10:00,26.6,18.8,29.77,WNW,292,2.0,10.0,72,0.00,,---,0.00,VWS V14.01,2013-03-12 01:10:00,
2013-03-11 20:15:00,26.4,18.6,29.78,West,270,4.0,12.0,72,0.00,,---,0.00,VWS V14.01,2013-03-12 01:15:00,
2013-03-11 20:17:00,27.6,19.8,29.76,NNW,339,7.0,11.0,72,0.00,,OVC060,0.00,VWS V14.01,2013-03-12 01:17:00,
2013-03-11 20:20:00,26.3,18.5,29.78,WNW,292,3.0,10.0,72,0.00,,---,0.00,VWS V14.01,2013-03-12 01:20:00,
2013-03-11 20:22:00,27.5,19.4,29.76,NW,310,5.0,13.0,71,0.00,,OVC060,0.00,VWS V14.01,2013-03-12 01:22:00,
2013-03-11 20:25:00,26.3,18.5,29.78,West,270,2.0,10.0,72,0.00,,---,0.00,VWS V14.01,2013-03-12 01:25:00,
2013-03-11 20:27:00,27.3,19.1,29.76,WNW,302,2.0,12.0,71,0.00,,OVC060,0.00,VWS V14.01,2013-03-12 01:27:00,
2013-03-11 20:30:00,26.3,18.5,29.78,WNW,292,3.0,12.0,72,0.00,,---,0.00,VWS V14.01,2013-03-12 01:30:00,
2013-03-11 20:32:00,27.2,19.1,29.76,WNW,287,4.0,11.0,71,0.00,,OVC060,0.00,VWS V14.01,2013-03-12 01:32:00,
2013-03-11 20:35:00,26.1,18.3,29.78,West,270,2.0,9.0,72,0.00,,---,0.00,VWS V14.01,2013-03-12 01:35:00,
2013-03-11 20:40:00,26.1,18.0,29.78,West,270,2.0,5.0,71,0.00,,---,0.00,VWS V14.01,2013-03-12 01:40:00,
2013-03-11 20:42:00,27.0,18.9,29.76,NW,312,0.0,12.0,71,0.00,,OVC060,0.00,VWS V14.01,2013-03-12 01:42:00,
2013-03-11 20:45:00,26.0,17.9,29.78,WNW,292,1.0,5.0,71,0.00,,---,0.00,VWS V14.01,2013-03-12 01:45:00,
2013-03-11 20:47:00,27.0,18.9,29.76,WNW,284,0.0,5.0,71,0.00,,OVC060,0.00,VWS V14.01,2013-03-12 01:47:00,
2013-03-11 20:50:00,25.8,17.7,29.78,WNW,292,1.0,5.0,71,0.00,,---,0.00,VWS V14.01,2013-03-12 01:50:00,
2013-03-11 20:52:00,26.9,19.1,29.76,West,276,6.0,10.0,72,0.00,,OVC060,0.00,VWS V14.01,2013-03-12 01:52:00,
2013-03-11 20:55:00,25.7,17.6,29.78,WNW,292,3.0,10.0,71,0.00,,---,0.00,VWS V14.01,2013-03-12 01:55:00,
2013-03-11 21:00:00,25.6,17.5,29.79,WNW,292,4.0,11.0,71,0.00,,---,0.00,VWS V14.01,2013-03-12 02:00:00,
2013-03-11 21:02:00,26.7,18.9,29.77,WNW,283,1.0,7.0,72,0.00,,OVC090,0.00,VWS V14.01,2013-03-12 02:02:00,
2013-03-11 21:05:00,25.4,17.3,29.79,WNW,292,2.0,5.0,71,0.00,,---,0.00,VWS V14.01,2013-03-12 02:05:00,
2013-03-11 21:07:00,26.6,18.8,29.77,West,273,3.0,11.0,72,0.00,,OVC090,0.00,VWS V14.01,2013-03-12 02:07:00,
2013-03-11 21:10:00,25.3,17.2,29.79,WNW,292,2.0,5.0,71,0.00,,---,0.00,VWS V14.01,2013-03-12 02:10:00,
2013-03-11 21:12:00,26.6,18.8,29.77,WNW,291,4.0,10.0,72,0.00,,OVC090,0.00,VWS V14.01,2013-03-12 02:12:00,
2013-03-11 21:15:00,25.1,17.0,29.79,WNW,292,2.0,5.0,71,0.00,,---,0.00,VWS V14.01,2013-03-12 02:15:00,
2013-03-11 21:17:00,26.4,18.6,29.78,WNW,289,4.0,12.0,72,0.00,,OVC090,0.00,VWS V14.01,2013-03-12 02:17:00,
2013-03-11 21:20:00,25.0,16.9,29.79,WNW,292,2.0,5.0,71,0.00,,---,0.00,VWS V14.01,2013-03-12 02:20:00,
2013-03-11 21:22:00,26.3,18.5,29.78,WNW,296,5.0,10.0,72,0.00,,OVC090,0.00,VWS V14.01,2013-03-12 02:22:00,
2013-03-11 21:25:00,24.8,16.8,29.79,WNW,292,3.0,9.0,71,0.00,,---,0.00,VWS V14.01,2013-03-12 02:25:00,
2013-03-11 21:27:00,26.3,18.5,29.78,WNW,294,0.0,10.0,72,0.00,,OVC090,0.00,VWS V14.01,2013-03-12 02:27:00,
2013-03-11 21:30:00,24.7,17.0,29.79,West,270,3.0,9.0,72,0.00,,---,0.00,VWS V14.01,2013-03-12 02:30:00,
2013-03-11 21:32:00,26.3,18.5,29.78,West,279,2.0,12.0,72,0.00,,OVC090,0.00,VWS V14.01,2013-03-12 02:32:00,
2013-03-11 21:35:00,24.5,16.8,29.79,West,270,3.0,11.0,72,0.00,,---,0.00,VWS V14.01,2013-03-12 02:35:00,
2013-03-11 21:37:00,26.1,18.3,29.78,WNW,298,2.0,7.0,72,0.00,,OVC090,0.00,VWS V14.01,2013-03-12 02:37:00,
2013-03-11 21:40:00,24.4,16.7,29.79,West,270,3.0,10.0,72,0.00,,---,0.00,VWS V14.01,2013-03-12 02:40:00,
2013-03-11 21:42:00,26.1,18.0,29.78,WNW,298,0.0,5.0,71,0.00,,OVC090,0.00,VWS V14.01,2013-03-12 02:42:00,
2013-03-11 21:45:00,24.2,16.8,29.80,West,270,2.0,9.0,73,0.00,,---,0.00,VWS V14.01,2013-03-12 02:45:00,
2013-03-11 21:47:00,26.0,17.9,29.78,WNW,302,0.0,5.0,71,0.00,,OVC090,0.00,VWS V14.01,2013-03-12 02:47:00,
2013-03-11 21:50:00,24.1,16.7,29.80,West,270,2.0,9.0,73,0.00,,---,0.00,VWS V14.01,2013-03-12 02:50:00,
2013-03-11 21:52:00,25.8,17.7,29.78,West,279,0.0,5.0,71,0.00,,OVC090,0.00,VWS V14.01,2013-03-12 02:52:00,
2013-03-11 21:55:00,23.9,16.8,29.80,WNW,292,1.0,4.0,74,0.00,,---,0.00,VWS V14.01,2013-03-12 02:55:00,
2013-03-11 21:57:00,25.7,17.6,29.78,WNW,286,1.0,10.0,71,0.00,,OVC090,0.00,VWS V14.01,2013-03-12 02:57:00,
2013-03-11 22:00:00,23.9,16.8,29.80,West,269,3.0,6.0,74,0.00,,FEW065,0.00,VWS V14.01,2013-03-12 03:00:00,
2013-03-11 22:02:00,25.6,17.5,29.79,West,277,3.0,11.0,71,0.00,,SCT090,0.00,VWS V14.01,2013-03-12 03:02:00,
2013-03-11 22:05:00,23.8,17.0,29.80,WNW,284,11.0,11.0,75,0.00,,FEW065,0.00,VWS V14.01,2013-03-12 03:05:00,
2013-03-11 22:07:00,25.4,17.3,29.79,NW,315,1.0,4.0,71,0.00,,SCT090,0.00,VWS V14.01,2013-03-12 03:07:00,
2013-03-11 22:10:00,23.6,16.9,29.80,West,275,1.0,11.0,75,0.00,,FEW065,0.00,VWS V14.01,2013-03-12 03:10:00,
2013-03-11 22:15:00,23.5,16.8,29.80,WNW,289,0.0,4.0,75,0.00,,FEW065,0.00,VWS V14.01,2013-03-12 03:15:00,
2013-03-11 22:17:00,25.1,17.0,29.79,West,275,4.0,5.0,71,0.00,,SCT090,0.00,VWS V14.01,2013-03-12 03:17:00,
2013-03-11 22:20:00,23.3,16.9,29.80,WNW,293,0.0,4.0,76,0.00,,FEW065,0.00,VWS V14.01,2013-03-12 03:20:00,
2013-03-11 22:22:00,25.0,16.9,29.79,West,266,3.0,5.0,71,0.00,,SCT090,0.00,VWS V14.01,2013-03-12 03:22:00,
2013-03-11 22:25:00,23.2,16.8,29.80,West,275,0.0,5.0,76,0.00,,FEW065,0.00,VWS V14.01,2013-03-12 03:25:00,
2013-03-11 22:27:00,24.8,16.8,29.79,West,263,7.0,9.0,71,0.00,,SCT090,0.00,VWS V14.01,2013-03-12 03:27:00,
2013-03-11 22:30:00,23.0,16.9,29.80,West,278,0.0,4.0,77,0.00,,FEW065,0.00,VWS V14.01,2013-03-12 03:30:00,
2013-03-11 22:32:00,24.7,17.0,29.79,WNW,282,2.0,9.0,72,0.00,,SCT090,0.00,VWS V14.01,2013-03-12 03:32:00,
2013-03-11 22:35:00,22.9,16.8,29.80,WNW,286,1.0,1.0,77,0.00,,FEW065,0.00,VWS V14.01,2013-03-12 03:35:00,
2013-03-11 22:37:00,24.5,16.8,29.79,WNW,283,1.0,11.0,72,0.00,,SCT090,0.00,VWS V14.01,2013-03-12 03:37:00,
2013-03-11 22:40:00,22.7,16.6,29.80,WNW,296,3.0,4.0,77,0.00,,FEW065,0.00,VWS V14.01,2013-03-12 03:40:00,
2013-03-11 22:42:00,24.4,16.7,29.79,West,278,1.0,10.0,72,0.00,,SCT090,0.00,VWS V14.01,2013-03-12 03:42:00,
2013-03-11 22:45:00,22.5,16.4,29.81,WNW,290,2.0,3.0,77,0.00,,FEW065,0.00,VWS V14.01,2013-03-12 03:45:00,
2013-03-11 22:47:00,24.2,16.8,29.80,West,268,1.0,7.0,73,0.00,,SCT090,0.00,VWS V14.01,2013-03-12 03:47:00,
2013-03-11 22:50:00,22.5,16.7,29.81,West,277,0.0,4.0,78,0.00,,FEW065,0.00,VWS V14.01,2013-03-12 03:50:00,
2013-03-11 22:52:00,24.1,16.7,29.80,WNW,285,3.0,9.0,73,0.00,,SCT090,0.00,VWS V14.01,2013-03-12 03:52:00,
2013-03-11 22:55:00,22.4,16.6,29.81,West,277,0.0,2.0,78,0.00,,FEW065,0.00,VWS V14.01,2013-03-12 03:55:00,
2013-03-11 23:00:00,22.2,16.4,29.81,West,269,3.0,4.0,78,0.00,,FEW065,0.00,VWS V14.01,2013-03-12 04:00:00,
2013-03-11 23:05:00,22.2,16.4,29.81,West,280,0.0,4.0,78,0.00,,FEW065,0.00,VWS V14.01,2013-03-12 04:05:00,
2013-03-11 23:10:00,22.1,16.3,29.81,West,280,0.0,0.0,78,0.00,,FEW065,0.00,VWS V14.01,2013-03-12 04:10:00,
2013-03-11 23:15:00,21.9,16.1,29.81,West,277,3.0,3.0,78,0.00,,FEW065,0.00,VWS V14.01,2013-03-12 04:15:00,
2013-03-11 23:20:00,21.8,16.0,29.81,West,281,0.0,4.0,78,0.00,,FEW065,0.00,VWS V14.01,2013-03-12 04:20:00,
2013-03-11 23:25:00,21.6,15.8,29.81,West,275,1.0,4.0,78,0.00,,FEW065,0.00,VWS V14.01,2013-03-12 04:25:00,
2013-03-11 23:30:00,21.4,15.6,29.81,West,277,1.0,3.0,78,0.00,,FEW065,0.00,VWS V14.01,2013-03-12 04:30:00,
2013-03-11 23:35:00,21.3,15.5,29.81,West,271,3.0,4.0,78,0.00,,FEW065,0.00,VWS V14.01,2013-03-12 04:35:00,
2013-03-11 23:40:00,21.1,15.3,29.81,NW,306,0.0,5.0,78,0.00,,FEW065,0.00,VWS V14.01,2013-03-12 04:40:00,
2013-03-11 23:45:00,21.0,15.2,29.81,WNW,298,0.0,3.0,78,0.00,,FEW065,0.00,VWS V14.01,2013-03-12 04:45:00,
2013-03-11 23:50:00,20.8,14.7,29.81,West,272,0.0,4.0,77,0.00,,FEW065,0.00,VWS V14.01,2013-03-12 04:50:00,
2013-03-11 23:55:00,20.6,14.6,29.81,West,278,1.0,3.0,77,0.00,,FEW065,0.00,VWS V14.01,2013-03-12 04:55:00,